sensor_id;sensor_type;location;lat;lon;timestamp;P1;durP1;ratioP1;P2;durP2;ratioP2
53521;SDS011;39398;48.382;9.802;2023-01-28T00:04:06;37.63;;;14.32;;
53521;SDS011;39398;48.382;9.802;2023-01-28T00:09:09;22.48;;;9.02;;
53521;SDS011;39398;48.382;9.802;2023-01-28T00:14:10;38.65;;;17.15;;
53521;SDS011;39398;48.382;9.802;2023-01-28T00:19:12;34.83;;;16.10;;
53521;SDS011;39398;48.382;9.802;2023-01-28T00:24:15;35.45;;;14.30;;
53521;SDS011;39398;48.382;9.802;2023-01-28T00:29:17;29.92;;;12.55;;
53521;SDS011;39398;48.382;9.802;2023-01-28T00:34:18;33.30;;;17.00;;
53521;SDS011;39398;48.382;9.802;2023-01-28T00:39:21;35.30;;;18.35;;
53521;SDS011;39398;48.382;9.802;2023-01-28T00:44:24;34.70;;;17.35;;
53521;SDS011;39398;48.382;9.802;2023-01-28T00:49:25;33.50;;;15.05;;
53521;SDS011;39398;48.382;9.802;2023-01-28T00:54:28;33.60;;;19.00;;
53521;SDS011;39398;48.382;9.802;2023-01-28T00:59:30;33.67;;;14.07;;
53521;SDS011;39398;48.382;9.802;2023-01-28T01:04:31;34.53;;;16.30;;
53521;SDS011;39398;48.382;9.802;2023-01-28T01:09:34;42.75;;;20.60;;
53521;SDS011;39398;48.382;9.802;2023-01-28T01:14:36;46.65;;;18.05;;
53521;SDS011;39398;48.382;9.802;2023-01-28T01:19:37;25.35;;;10.93;;
53521;SDS011;39398;48.382;9.802;2023-01-28T01:24:40;27.15;;;11.13;;
53521;SDS011;39398;48.382;9.802;2023-01-28T01:29:42;43.03;;;17.67;;
53521;SDS011;39398;48.382;9.802;2023-01-28T01:34:43;39.63;;;19.42;;
53521;SDS011;39398;48.382;9.802;2023-01-28T01:39:47;35.42;;;17.30;;
53521;SDS011;39398;48.382;9.802;2023-01-28T01:44:53;33.60;;;14.10;;
53521;SDS011;39398;48.382;9.802;2023-01-28T01:49:57;38.53;;;17.48;;
53521;SDS011;39398;48.382;9.802;2023-01-28T01:55:05;22.73;;;10.75;;
53521;SDS011;39398;48.382;9.802;2023-01-28T02:00:13;30.75;;;14.90;;
53521;SDS011;39398;48.382;9.802;2023-01-28T02:05:16;34.75;;;14.73;;
53521;SDS011;39398;48.382;9.802;2023-01-28T02:10:22;29.52;;;12.23;;
53521;SDS011;39398;48.382;9.802;2023-01-28T02:15:24;37.00;;;18.48;;
53521;SDS011;39398;48.382;9.802;2023-01-28T02:20:29;33.33;;;15.13;;
53521;SDS011;39398;48.382;9.802;2023-01-28T02:31:20;40.30;;;16.98;;
53521;SDS011;39398;48.382;9.802;2023-01-28T02:36:28;30.17;;;16.65;;
53521;SDS011;39398;48.382;9.802;2023-01-28T02:41:37;35.08;;;19.85;;
53521;SDS011;39398;48.382;9.802;2023-01-28T02:46:45;32.13;;;16.67;;
53521;SDS011;39398;48.382;9.802;2023-01-28T02:51:51;36.78;;;18.55;;
53521;SDS011;39398;48.382;9.802;2023-01-28T02:57:05;28.15;;;13.48;;
53521;SDS011;39398;48.382;9.802;2023-01-28T03:02:41;30.15;;;12.60;;
53521;SDS011;39398;48.382;9.802;2023-01-28T03:07:48;26.40;;;10.88;;
53521;SDS011;39398;48.382;9.802;2023-01-28T03:12:52;31.35;;;16.67;;
53521;SDS011;39398;48.382;9.802;2023-01-28T03:17:59;24.10;;;12.15;;
53521;SDS011;39398;48.382;9.802;2023-01-28T03:23:06;32.45;;;13.45;;
53521;SDS011;39398;48.382;9.802;2023-01-28T03:28:12;26.92;;;13.73;;
53521;SDS011;39398;48.382;9.802;2023-01-28T03:38:23;33.28;;;20.20;;
53521;SDS011;39398;48.382;9.802;2023-01-28T03:43:24;33.90;;;13.88;;
53521;SDS011;39398;48.382;9.802;2023-01-28T03:48:28;29.75;;;17.48;;
53521;SDS011;39398;48.382;9.802;2023-01-28T03:53:30;31.90;;;16.85;;
53521;SDS011;39398;48.382;9.802;2023-01-28T03:58:31;32.45;;;12.73;;
53521;SDS011;39398;48.382;9.802;2023-01-28T04:03:34;37.75;;;14.93;;
53521;SDS011;39398;48.382;9.802;2023-01-28T04:08:36;32.42;;;12.90;;
53521;SDS011;39398;48.382;9.802;2023-01-28T04:13:38;24.60;;;13.32;;
53521;SDS011;39398;48.382;9.802;2023-01-28T04:18:40;25.77;;;14.88;;
53521;SDS011;39398;48.382;9.802;2023-01-28T04:23:42;31.27;;;10.43;;
53521;SDS011;39398;48.382;9.802;2023-01-28T04:28:43;25.38;;;9.52;;
53521;SDS011;39398;48.382;9.802;2023-01-28T04:33:46;30.42;;;12.48;;
53521;SDS011;39398;48.382;9.802;2023-01-28T04:38:48;33.25;;;12.88;;
53521;SDS011;39398;48.382;9.802;2023-01-28T04:43:49;26.95;;;11.00;;
53521;SDS011;39398;48.382;9.802;2023-01-28T04:48:52;26.80;;;10.98;;
53521;SDS011;39398;48.382;9.802;2023-01-28T04:53:54;25.17;;;13.75;;
53521;SDS011;39398;48.382;9.802;2023-01-28T04:58:55;25.92;;;12.95;;
53521;SDS011;39398;48.382;9.802;2023-01-28T05:03:58;23.05;;;12.95;;
53521;SDS011;39398;48.382;9.802;2023-01-28T05:09:00;26.92;;;13.80;;
53521;SDS011;39398;48.382;9.802;2023-01-28T05:14:01;24.13;;;11.63;;
53521;SDS011;39398;48.382;9.802;2023-01-28T05:19:04;38.33;;;14.43;;
53521;SDS011;39398;48.382;9.802;2023-01-28T05:24:06;65.18;;;20.92;;
53521;SDS011;39398;48.382;9.802;2023-01-28T05:29:08;28.77;;;13.57;;
53521;SDS011;39398;48.382;9.802;2023-01-28T05:34:11;30.77;;;12.63;;
53521;SDS011;39398;48.382;9.802;2023-01-28T05:39:12;17.98;;;9.20;;
53521;SDS011;39398;48.382;9.802;2023-01-28T05:44:14;18.58;;;9.73;;
53521;SDS011;39398;48.382;9.802;2023-01-28T05:49:17;29.75;;;11.18;;
53521;SDS011;39398;48.382;9.802;2023-01-28T05:54:18;55.15;;;18.58;;
53521;SDS011;39398;48.382;9.802;2023-01-28T05:59:20;19.58;;;11.77;;
53521;SDS011;39398;48.382;9.802;2023-01-28T06:04:23;20.67;;;11.30;;
53521;SDS011;39398;48.382;9.802;2023-01-28T06:09:24;76.05;;;20.33;;
53521;SDS011;39398;48.382;9.802;2023-01-28T06:14:26;48.05;;;15.57;;
53521;SDS011;39398;48.382;9.802;2023-01-28T06:19:29;51.20;;;15.00;;
53521;SDS011;39398;48.382;9.802;2023-01-28T06:24:30;24.80;;;10.23;;
53521;SDS011;39398;48.382;9.802;2023-01-28T06:29:32;46.17;;;15.18;;
53521;SDS011;39398;48.382;9.802;2023-01-28T06:34:35;48.00;;;17.52;;
53521;SDS011;39398;48.382;9.802;2023-01-28T06:39:36;34.78;;;12.95;;
53521;SDS011;39398;48.382;9.802;2023-01-28T06:44:38;30.60;;;12.35;;
53521;SDS011;39398;48.382;9.802;2023-01-28T06:49:41;48.05;;;18.90;;
53521;SDS011;39398;48.382;9.802;2023-01-28T06:54:42;42.63;;;17.23;;
53521;SDS011;39398;48.382;9.802;2023-01-28T06:59:44;42.90;;;16.38;;
53521;SDS011;39398;48.382;9.802;2023-01-28T07:04:47;46.50;;;17.70;;
53521;SDS011;39398;48.382;9.802;2023-01-28T07:09:48;33.88;;;12.73;;
53521;SDS011;39398;48.382;9.802;2023-01-28T07:14:50;48.50;;;18.02;;
53521;SDS011;39398;48.382;9.802;2023-01-28T07:19:53;24.10;;;10.77;;
53521;SDS011;39398;48.382;9.802;2023-01-28T07:24:54;28.75;;;11.05;;
53521;SDS011;39398;48.382;9.802;2023-01-28T07:29:56;28.00;;;9.13;;
53521;SDS011;39398;48.382;9.802;2023-01-28T07:34:59;19.30;;;8.30;;
53521;SDS011;39398;48.382;9.802;2023-01-28T07:40:00;29.35;;;11.88;;
53521;SDS011;39398;48.382;9.802;2023-01-28T07:45:02;26.95;;;14.38;;
53521;SDS011;39398;48.382;9.802;2023-01-28T07:50:06;31.92;;;12.57;;
53521;SDS011;39398;48.382;9.802;2023-01-28T07:55:09;21.75;;;11.63;;
53521;SDS011;39398;48.382;9.802;2023-01-28T08:00:11;47.63;;;18.60;;
53521;SDS011;39398;48.382;9.802;2023-01-28T08:05:16;41.97;;;14.35;;
53521;SDS011;39398;48.382;9.802;2023-01-28T08:10:19;36.40;;;16.48;;
53521;SDS011;39398;48.382;9.802;2023-01-28T08:15:21;26.88;;;14.32;;
53521;SDS011;39398;48.382;9.802;2023-01-28T08:20:25;28.80;;;13.68;;
53521;SDS011;39398;48.382;9.802;2023-01-28T08:25:27;27.75;;;11.82;;
53521;SDS011;39398;48.382;9.802;2023-01-28T08:30:29;31.20;;;13.93;;
53521;SDS011;39398;48.382;9.802;2023-01-28T08:35:32;39.67;;;18.27;;
53521;SDS011;39398;48.382;9.802;2023-01-28T08:40:34;32.85;;;14.05;;
53521;SDS011;39398;48.382;9.802;2023-01-28T08:45:36;48.38;;;19.80;;
53521;SDS011;39398;48.382;9.802;2023-01-28T08:50:41;40.42;;;16.52;;
53521;SDS011;39398;48.382;9.802;2023-01-28T08:55:44;48.55;;;21.20;;
53521;SDS011;39398;48.382;9.802;2023-01-28T09:00:47;41.15;;;19.33;;
53521;SDS011;39398;48.382;9.802;2023-01-28T09:05:51;46.47;;;19.45;;
53521;SDS011;39398;48.382;9.802;2023-01-28T09:10:53;30.02;;;13.88;;
53521;SDS011;39398;48.382;9.802;2023-01-28T09:15:55;40.28;;;18.02;;
53521;SDS011;39398;48.382;9.802;2023-01-28T09:20:58;37.17;;;15.52;;
53521;SDS011;39398;48.382;9.802;2023-01-28T09:26:00;33.70;;;15.82;;
53521;SDS011;39398;48.382;9.802;2023-01-28T09:31:02;47.90;;;20.95;;
53521;SDS011;39398;48.382;9.802;2023-01-28T09:36:07;30.25;;;13.35;;
53521;SDS011;39398;48.382;9.802;2023-01-28T09:41:14;33.08;;;13.60;;
53521;SDS011;39398;48.382;9.802;2023-01-28T09:46:25;23.60;;;11.57;;
53521;SDS011;39398;48.382;9.802;2023-01-28T09:51:35;33.25;;;15.73;;
53521;SDS011;39398;48.382;9.802;2023-01-28T09:56:42;34.85;;;16.95;;
53521;SDS011;39398;48.382;9.802;2023-01-28T10:01:49;33.17;;;17.67;;
53521;SDS011;39398;48.382;9.802;2023-01-28T10:07:01;27.88;;;14.82;;
53521;SDS011;39398;48.382;9.802;2023-01-28T10:12:17;19.75;;;10.52;;
53521;SDS011;39398;48.382;9.802;2023-01-28T10:17:33;26.35;;;11.95;;
53521;SDS011;39398;48.382;9.802;2023-01-28T10:22:42;21.38;;;10.73;;
53521;SDS011;39398;48.382;9.802;2023-01-28T10:27:47;16.73;;;9.38;;
53521;SDS011;39398;48.382;9.802;2023-01-28T10:32:50;27.15;;;14.18;;
53521;SDS011;39398;48.382;9.802;2023-01-28T10:37:56;21.17;;;12.20;;
53521;SDS011;39398;48.382;9.802;2023-01-28T10:48:06;26.02;;;13.65;;
53521;SDS011;39398;48.382;9.802;2023-01-28T10:53:14;21.35;;;10.85;;
53521;SDS011;39398;48.382;9.802;2023-01-28T10:58:17;24.65;;;12.43;;
53521;SDS011;39398;48.382;9.802;2023-01-28T11:03:20;20.88;;;9.98;;
53521;SDS011;39398;48.382;9.802;2023-01-28T11:08:26;24.90;;;15.05;;
53521;SDS011;39398;48.382;9.802;2023-01-28T11:13:54;22.70;;;13.27;;
53521;SDS011;39398;48.382;9.802;2023-01-28T11:18:57;18.10;;;8.98;;
53521;SDS011;39398;48.382;9.802;2023-01-28T11:24:05;13.70;;;7.68;;
53521;SDS011;39398;48.382;9.802;2023-01-28T11:29:19;19.08;;;7.57;;
53521;SDS011;39398;48.382;9.802;2023-01-28T11:34:24;17.05;;;9.18;;
53521;SDS011;39398;48.382;9.802;2023-01-28T11:39:29;21.38;;;12.85;;
53521;SDS011;39398;48.382;9.802;2023-01-28T11:44:31;15.80;;;8.98;;
53521;SDS011;39398;48.382;9.802;2023-01-28T11:49:37;14.40;;;7.13;;
53521;SDS011;39398;48.382;9.802;2023-01-28T11:54:54;14.43;;;7.20;;
53521;SDS011;39398;48.382;9.802;2023-01-28T12:00:16;16.05;;;9.52;;
53521;SDS011;39398;48.382;9.802;2023-01-28T12:05:43;17.33;;;9.73;;
53521;SDS011;39398;48.382;9.802;2023-01-28T12:10:57;16.60;;;8.75;;
53521;SDS011;39398;48.382;9.802;2023-01-28T12:16:22;14.60;;;7.68;;
53521;SDS011;39398;48.382;9.802;2023-01-28T12:21:46;9.30;;;5.55;;
53521;SDS011;39398;48.382;9.802;2023-01-28T12:27:02;12.00;;;6.85;;
53521;SDS011;39398;48.382;9.802;2023-01-28T12:32:22;13.82;;;6.93;;
53521;SDS011;39398;48.382;9.802;2023-01-28T12:42:55;19.38;;;10.98;;
53521;SDS011;39398;48.382;9.802;2023-01-28T12:48:02;19.67;;;11.15;;
53521;SDS011;39398;48.382;9.802;2023-01-28T12:53:10;22.30;;;14.97;;
53521;SDS011;39398;48.382;9.802;2023-01-28T12:58:22;26.95;;;15.73;;
53521;SDS011;39398;48.382;9.802;2023-01-28T13:03:33;22.25;;;14.48;;
53521;SDS011;39398;48.382;9.802;2023-01-28T13:08:38;24.90;;;15.93;;
53521;SDS011;39398;48.382;9.802;2023-01-28T13:13:41;23.27;;;14.90;;
53521;SDS011;39398;48.382;9.802;2023-01-28T13:18:45;22.92;;;14.10;;
53521;SDS011;39398;48.382;9.802;2023-01-28T13:23:48;22.80;;;14.30;;
53521;SDS011;39398;48.382;9.802;2023-01-28T13:28:52;31.52;;;15.65;;
53521;SDS011;39398;48.382;9.802;2023-01-28T13:34:00;43.33;;;15.93;;
53521;SDS011;39398;48.382;9.802;2023-01-28T13:39:04;27.17;;;15.65;;
53521;SDS011;39398;48.382;9.802;2023-01-28T13:44:19;32.53;;;16.85;;
53521;SDS011;39398;48.382;9.802;2023-01-28T13:49:27;22.42;;;13.77;;
53521;SDS011;39398;48.382;9.802;2023-01-28T13:54:34;25.98;;;16.35;;
53521;SDS011;39398;48.382;9.802;2023-01-28T13:59:42;24.85;;;15.45;;
53521;SDS011;39398;48.382;9.802;2023-01-28T14:04:59;26.25;;;12.45;;
53521;SDS011;39398;48.382;9.802;2023-01-28T14:10:32;28.83;;;16.25;;
53521;SDS011;39398;48.382;9.802;2023-01-28T14:15:49;30.55;;;16.92;;
53521;SDS011;39398;48.382;9.802;2023-01-28T14:21:07;30.08;;;17.75;;
53521;SDS011;39398;48.382;9.802;2023-01-28T14:26:15;32.45;;;17.67;;
53521;SDS011;39398;48.382;9.802;2023-01-28T14:31:27;29.08;;;17.83;;
53521;SDS011;39398;48.382;9.802;2023-01-28T14:36:34;29.98;;;17.55;;
53521;SDS011;39398;48.382;9.802;2023-01-28T14:41:37;29.45;;;17.20;;
53521;SDS011;39398;48.382;9.802;2023-01-28T14:46:44;30.77;;;17.52;;
53521;SDS011;39398;48.382;9.802;2023-01-28T14:52:00;27.92;;;15.82;;
53521;SDS011;39398;48.382;9.802;2023-01-28T15:02:42;33.08;;;18.65;;
53521;SDS011;39398;48.382;9.802;2023-01-28T15:07:53;30.83;;;16.92;;
53521;SDS011;39398;48.382;9.802;2023-01-28T15:12:57;28.13;;;14.57;;
53521;SDS011;39398;48.382;9.802;2023-01-28T15:18:11;30.50;;;17.45;;
53521;SDS011;39398;48.382;9.802;2023-01-28T15:23:16;31.17;;;17.00;;
53521;SDS011;39398;48.382;9.802;2023-01-28T15:28:24;33.00;;;18.23;;
53521;SDS011;39398;48.382;9.802;2023-01-28T15:33:29;31.85;;;17.88;;
53521;SDS011;39398;48.382;9.802;2023-01-28T15:38:30;33.40;;;18.65;;
53521;SDS011;39398;48.382;9.802;2023-01-28T15:43:32;34.17;;;18.00;;
53521;SDS011;39398;48.382;9.802;2023-01-28T15:48:39;36.75;;;20.25;;
53521;SDS011;39398;48.382;9.802;2023-01-28T15:53:44;35.25;;;17.33;;
53521;SDS011;39398;48.382;9.802;2023-01-28T15:58:47;38.40;;;19.88;;
53521;SDS011;39398;48.382;9.802;2023-01-28T16:04:00;41.47;;;19.88;;
53521;SDS011;39398;48.382;9.802;2023-01-28T16:09:04;35.55;;;17.25;;
53521;SDS011;39398;48.382;9.802;2023-01-28T16:14:15;33.63;;;16.45;;
53521;SDS011;39398;48.382;9.802;2023-01-28T16:19:27;25.02;;;11.30;;
53521;SDS011;39398;48.382;9.802;2023-01-28T16:24:33;86.95;;;18.63;;
53521;SDS011;39398;48.382;9.802;2023-01-28T16:29:36;25.70;;;9.15;;
53521;SDS011;39398;48.382;9.802;2023-01-28T16:34:39;26.35;;;11.95;;
53521;SDS011;39398;48.382;9.802;2023-01-28T16:39:40;34.80;;;15.95;;
53521;SDS011;39398;48.382;9.802;2023-01-28T16:44:42;45.28;;;17.58;;
53521;SDS011;39398;48.382;9.802;2023-01-28T16:49:44;29.40;;;12.73;;
53521;SDS011;39398;48.382;9.802;2023-01-28T16:54:46;27.17;;;10.98;;
53521;SDS011;39398;48.382;9.802;2023-01-28T16:59:48;32.15;;;13.70;;
53521;SDS011;39398;48.382;9.802;2023-01-28T17:04:51;24.58;;;11.57;;
53521;SDS011;39398;48.382;9.802;2023-01-28T17:09:52;38.13;;;16.40;;
53521;SDS011;39398;48.382;9.802;2023-01-28T17:14:54;33.15;;;13.25;;
53521;SDS011;39398;48.382;9.802;2023-01-28T17:19:57;19.58;;;8.30;;
53521;SDS011;39398;48.382;9.802;2023-01-28T17:24:59;37.88;;;14.05;;
53521;SDS011;39398;48.382;9.802;2023-01-28T17:30:00;29.05;;;10.55;;
53521;SDS011;39398;48.382;9.802;2023-01-28T17:35:03;34.25;;;12.23;;
53521;SDS011;39398;48.382;9.802;2023-01-28T17:40:07;47.78;;;19.63;;
53521;SDS011;39398;48.382;9.802;2023-01-28T17:45:10;30.98;;;12.15;;
53521;SDS011;39398;48.382;9.802;2023-01-28T17:50:13;28.33;;;10.82;;
53521;SDS011;39398;48.382;9.802;2023-01-28T17:55:14;43.17;;;14.05;;
53521;SDS011;39398;48.382;9.802;2023-01-28T18:00:17;46.08;;;16.25;;
53521;SDS011;39398;48.382;9.802;2023-01-28T18:05:20;53.67;;;19.63;;
53521;SDS011;39398;48.382;9.802;2023-01-28T18:10:22;43.13;;;13.98;;
53521;SDS011;39398;48.382;9.802;2023-01-28T18:15:23;33.80;;;14.30;;
53521;SDS011;39398;48.382;9.802;2023-01-28T18:20:27;20.33;;;9.30;;
53521;SDS011;39398;48.382;9.802;2023-01-28T18:25:28;32.70;;;14.48;;
53521;SDS011;39398;48.382;9.802;2023-01-28T18:30:30;24.67;;;8.43;;
53521;SDS011;39398;48.382;9.802;2023-01-28T18:35:33;23.48;;;10.52;;
53521;SDS011;39398;48.382;9.802;2023-01-28T18:40:34;33.03;;;15.65;;
53521;SDS011;39398;48.382;9.802;2023-01-28T18:45:36;39.53;;;18.17;;
53521;SDS011;39398;48.382;9.802;2023-01-28T18:50:40;33.75;;;16.17;;
53521;SDS011;39398;48.382;9.802;2023-01-28T18:55:41;40.10;;;18.23;;
53521;SDS011;39398;48.382;9.802;2023-01-28T19:00:43;38.45;;;18.35;;
53521;SDS011;39398;48.382;9.802;2023-01-28T19:05:46;33.05;;;16.00;;
53521;SDS011;39398;48.382;9.802;2023-01-28T19:10:53;37.83;;;17.15;;
53521;SDS011;39398;48.382;9.802;2023-01-28T19:15:55;37.10;;;18.55;;
53521;SDS011;39398;48.382;9.802;2023-01-28T19:21:01;40.35;;;21.00;;
53521;SDS011;39398;48.382;9.802;2023-01-28T19:26:03;42.22;;;20.35;;
53521;SDS011;39398;48.382;9.802;2023-01-28T19:31:05;41.47;;;19.45;;
53521;SDS011;39398;48.382;9.802;2023-01-28T19:36:08;43.83;;;21.83;;
53521;SDS011;39398;48.382;9.802;2023-01-28T19:41:10;46.05;;;20.55;;
53521;SDS011;39398;48.382;9.802;2023-01-28T19:46:12;42.60;;;20.40;;
53521;SDS011;39398;48.382;9.802;2023-01-28T19:51:16;40.35;;;20.60;;
53521;SDS011;39398;48.382;9.802;2023-01-28T19:56:19;44.67;;;21.58;;
53521;SDS011;39398;48.382;9.802;2023-01-28T20:01:22;46.90;;;23.02;;
53521;SDS011;39398;48.382;9.802;2023-01-28T20:06:30;41.13;;;22.83;;
53521;SDS011;39398;48.382;9.802;2023-01-28T20:11:33;36.30;;;19.02;;
53521;SDS011;39398;48.382;9.802;2023-01-28T20:16:35;33.53;;;17.10;;
53521;SDS011;39398;48.382;9.802;2023-01-28T20:21:38;36.85;;;19.27;;
53521;SDS011;39398;48.382;9.802;2023-01-28T20:26:41;35.15;;;16.05;;
53521;SDS011;39398;48.382;9.802;2023-01-28T20:31:43;34.58;;;16.10;;
53521;SDS011;39398;48.382;9.802;2023-01-28T20:36:55;34.08;;;13.30;;
53521;SDS011;39398;48.382;9.802;2023-01-28T20:41:57;38.20;;;17.90;;
53521;SDS011;39398;48.382;9.802;2023-01-28T20:46:59;38.30;;;17.98;;
53521;SDS011;39398;48.382;9.802;2023-01-28T20:52:02;19.45;;;9.73;;
53521;SDS011;39398;48.382;9.802;2023-01-28T20:57:03;24.38;;;12.00;;
53521;SDS011;39398;48.382;9.802;2023-01-28T21:02:05;25.95;;;11.85;;
53521;SDS011;39398;48.382;9.802;2023-01-28T21:07:08;18.08;;;7.93;;
53521;SDS011;39398;48.382;9.802;2023-01-28T21:12:10;15.77;;;7.50;;
53521;SDS011;39398;48.382;9.802;2023-01-28T21:17:12;16.10;;;8.68;;
53521;SDS011;39398;48.382;9.802;2023-01-28T21:22:15;28.92;;;11.65;;
53521;SDS011;39398;48.382;9.802;2023-01-28T21:27:16;24.02;;;11.73;;
53521;SDS011;39398;48.382;9.802;2023-01-28T21:32:18;26.52;;;12.77;;
53521;SDS011;39398;48.382;9.802;2023-01-28T21:37:23;30.08;;;17.08;;
53521;SDS011;39398;48.382;9.802;2023-01-28T21:42:25;35.40;;;19.00;;
53521;SDS011;39398;48.382;9.802;2023-01-28T21:47:27;29.80;;;16.60;;
53521;SDS011;39398;48.382;9.802;2023-01-28T21:52:30;24.60;;;12.70;;
53521;SDS011;39398;48.382;9.802;2023-01-28T21:57:32;21.15;;;10.68;;
53521;SDS011;39398;48.382;9.802;2023-01-28T22:02:33;24.40;;;11.80;;
53521;SDS011;39398;48.382;9.802;2023-01-28T22:07:37;24.45;;;11.48;;
53521;SDS011;39398;48.382;9.802;2023-01-28T22:12:38;21.42;;;10.98;;
53521;SDS011;39398;48.382;9.802;2023-01-28T22:17:40;27.23;;;14.85;;
53521;SDS011;39398;48.382;9.802;2023-01-28T22:22:43;28.50;;;15.95;;
53521;SDS011;39398;48.382;9.802;2023-01-28T22:27:44;15.55;;;9.23;;
53521;SDS011;39398;48.382;9.802;2023-01-28T22:32:46;16.20;;;9.10;;
53521;SDS011;39398;48.382;9.802;2023-01-28T22:37:49;21.30;;;11.77;;
53521;SDS011;39398;48.382;9.802;2023-01-28T22:42:51;21.92;;;11.75;;
53521;SDS011;39398;48.382;9.802;2023-01-28T22:47:52;19.30;;;11.68;;
53521;SDS011;39398;48.382;9.802;2023-01-28T22:52:55;17.42;;;10.18;;
53521;SDS011;39398;48.382;9.802;2023-01-28T22:57:57;14.02;;;6.15;;
53521;SDS011;39398;48.382;9.802;2023-01-28T23:02:59;17.92;;;7.18;;
53521;SDS011;39398;48.382;9.802;2023-01-28T23:08:03;8.35;;;4.65;;
53521;SDS011;39398;48.382;9.802;2023-01-28T23:13:04;10.90;;;6.53;;
53521;SDS011;39398;48.382;9.802;2023-01-28T23:18:07;8.35;;;4.45;;
53521;SDS011;39398;48.382;9.802;2023-01-28T23:23:17;10.55;;;7.28;;
53521;SDS011;39398;48.382;9.802;2023-01-28T23:28:18;10.98;;;6.50;;
53521;SDS011;39398;48.382;9.802;2023-01-28T23:33:20;14.25;;;6.88;;
53521;SDS011;39398;48.382;9.802;2023-01-28T23:38:23;9.40;;;5.13;;
53521;SDS011;39398;48.382;9.802;2023-01-28T23:43:24;5.85;;;3.67;;
53521;SDS011;39398;48.382;9.802;2023-01-28T23:48:26;6.10;;;4.55;;
53521;SDS011;39398;48.382;9.802;2023-01-28T23:53:29;9.52;;;5.13;;
53521;SDS011;39398;48.382;9.802;2023-01-28T23:58:30;6.55;;;3.40;;
